sensor_id;sensor_type;location;lat;lon;timestamp;temperature;humidity
27819;DHT22;15192;44.854;10.046;2023-06-10T00:00:51;21.00;99.90
27819;DHT22;15192;44.854;10.046;2023-06-10T00:03:20;20.90;99.90
27819;DHT22;15192;44.854;10.046;2023-06-10T00:05:50;20.80;99.90
27819;DHT22;15192;44.854;10.046;2023-06-10T00:08:19;20.90;99.90
27819;DHT22;15192;44.854;10.046;2023-06-10T00:10:48;20.80;99.90
27819;DHT22;15192;44.854;10.046;2023-06-10T00:13:17;20.80;99.90
27819;DHT22;15192;44.854;10.046;2023-06-10T00:15:47;20.80;99.90
27819;DHT22;15192;44.854;10.046;2023-06-10T00:18:16;20.70;99.90
27819;DHT22;15192;44.854;10.046;2023-06-10T00:20:45;20.70;99.90
27819;DHT22;15192;44.854;10.046;2023-06-10T00:23:15;20.70;99.90
27819;DHT22;15192;44.854;10.046;2023-06-10T00:25:45;20.70;99.90
27819;DHT22;15192;44.854;10.046;2023-06-10T00:28:14;20.70;99.90
27819;DHT22;15192;44.854;10.046;2023-06-10T00:30:43;20.70;99.90
27819;DHT22;15192;44.854;10.046;2023-06-10T00:33:12;20.70;99.90
27819;DHT22;15192;44.854;10.046;2023-06-10T00:35:40;20.70;99.90
27819;DHT22;15192;44.854;10.046;2023-06-10T00:38:09;20.70;99.90
27819;DHT22;15192;44.854;10.046;2023-06-10T00:40:41;20.70;99.90
27819;DHT22;15192;44.854;10.046;2023-06-10T00:43:09;20.70;99.90
27819;DHT22;15192;44.854;10.046;2023-06-10T00:45:38;20.70;99.90
27819;DHT22;15192;44.854;10.046;2023-06-10T00:48:07;20.70;99.90
27819;DHT22;15192;44.854;10.046;2023-06-10T00:50:36;20.70;99.90
27819;DHT22;15192;44.854;10.046;2023-06-10T00:53:07;20.70;99.90
27819;DHT22;15192;44.854;10.046;2023-06-10T00:55:37;20.60;99.90
27819;DHT22;15192;44.854;10.046;2023-06-10T00:58:06;20.60;99.90
27819;DHT22;15192;44.854;10.046;2023-06-10T01:00:36;20.60;99.90
27819;DHT22;15192;44.854;10.046;2023-06-10T01:03:05;20.60;99.90
27819;DHT22;15192;44.854;10.046;2023-06-10T01:05:36;20.60;99.90
27819;DHT22;15192;44.854;10.046;2023-06-10T01:08:15;20.60;99.90
27819;DHT22;15192;44.854;10.046;2023-06-10T01:10:50;20.60;99.90
27819;DHT22;15192;44.854;10.046;2023-06-10T01:13:15;20.60;99.90
27819;DHT22;15192;44.854;10.046;2023-06-10T01:15:44;20.50;99.90
27819;DHT22;15192;44.854;10.046;2023-06-10T01:18:13;20.50;99.90
27819;DHT22;15192;44.854;10.046;2023-06-10T01:20:46;20.50;99.90
27819;DHT22;15192;44.854;10.046;2023-06-10T01:23:16;20.40;99.90
27819;DHT22;15192;44.854;10.046;2023-06-10T01:26:00;20.40;99.90
27819;DHT22;15192;44.854;10.046;2023-06-10T01:31:18;20.40;99.90
27819;DHT22;15192;44.854;10.046;2023-06-10T01:33:51;20.30;99.90
27819;DHT22;15192;44.854;10.046;2023-06-10T01:36:22;20.30;99.90
27819;DHT22;15192;44.854;10.046;2023-06-10T01:38:53;20.30;99.90
27819;DHT22;15192;44.854;10.046;2023-06-10T01:41:22;20.30;99.90
27819;DHT22;15192;44.854;10.046;2023-06-10T01:43:51;20.30;99.90
27819;DHT22;15192;44.854;10.046;2023-06-10T01:46:20;20.20;99.90
27819;DHT22;15192;44.854;10.046;2023-06-10T01:48:49;20.20;99.90
27819;DHT22;15192;44.854;10.046;2023-06-10T01:51:18;20.20;99.90
27819;DHT22;15192;44.854;10.046;2023-06-10T01:53:47;20.30;99.90
27819;DHT22;15192;44.854;10.046;2023-06-10T01:56:17;20.30;99.90
27819;DHT22;15192;44.854;10.046;2023-06-10T01:58:47;20.30;99.90
27819;DHT22;15192;44.854;10.046;2023-06-10T02:01:16;20.20;99.90
27819;DHT22;15192;44.854;10.046;2023-06-10T02:03:45;20.20;99.90
27819;DHT22;15192;44.854;10.046;2023-06-10T02:06:14;20.10;99.90
27819;DHT22;15192;44.854;10.046;2023-06-10T02:08:43;20.10;99.90
27819;DHT22;15192;44.854;10.046;2023-06-10T02:11:12;20.10;99.90
27819;DHT22;15192;44.854;10.046;2023-06-10T02:13:41;20.10;99.90
27819;DHT22;15192;44.854;10.046;2023-06-10T02:16:10;20.00;99.90
27819;DHT22;15192;44.854;10.046;2023-06-10T02:18:41;20.00;99.90
27819;DHT22;15192;44.854;10.046;2023-06-10T02:21:11;20.00;99.90
27819;DHT22;15192;44.854;10.046;2023-06-10T02:23:40;19.90;99.90
27819;DHT22;15192;44.854;10.046;2023-06-10T02:26:09;19.90;99.90
27819;DHT22;15192;44.854;10.046;2023-06-10T02:28:41;19.80;99.90
27819;DHT22;15192;44.854;10.046;2023-06-10T02:31:10;19.80;99.90
27819;DHT22;15192;44.854;10.046;2023-06-10T02:33:39;19.80;99.90
27819;DHT22;15192;44.854;10.046;2023-06-10T02:36:08;19.70;99.90
27819;DHT22;15192;44.854;10.046;2023-06-10T02:38:40;19.60;99.90
27819;DHT22;15192;44.854;10.046;2023-06-10T02:41:09;19.60;99.90
27819;DHT22;15192;44.854;10.046;2023-06-10T02:43:38;19.50;99.90
27819;DHT22;15192;44.854;10.046;2023-06-10T02:46:07;19.50;99.90
27819;DHT22;15192;44.854;10.046;2023-06-10T02:48:45;19.50;99.90
27819;DHT22;15192;44.854;10.046;2023-06-10T02:51:15;19.40;99.90
27819;DHT22;15192;44.854;10.046;2023-06-10T02:53:46;19.40;99.90
27819;DHT22;15192;44.854;10.046;2023-06-10T02:56:17;19.30;99.90
27819;DHT22;15192;44.854;10.046;2023-06-10T02:58:46;19.30;99.90
27819;DHT22;15192;44.854;10.046;2023-06-10T03:01:16;19.30;99.90
27819;DHT22;15192;44.854;10.046;2023-06-10T03:03:57;19.20;99.90
27819;DHT22;15192;44.854;10.046;2023-06-10T03:06:26;19.20;99.90
27819;DHT22;15192;44.854;10.046;2023-06-10T03:08:57;19.20;99.90
27819;DHT22;15192;44.854;10.046;2023-06-10T03:11:26;19.10;99.90
27819;DHT22;15192;44.854;10.046;2023-06-10T03:13:55;19.10;99.90
27819;DHT22;15192;44.854;10.046;2023-06-10T03:16:25;19.10;99.90
27819;DHT22;15192;44.854;10.046;2023-06-10T03:18:55;19.10;99.90
27819;DHT22;15192;44.854;10.046;2023-06-10T03:21:24;19.10;99.90
27819;DHT22;15192;44.854;10.046;2023-06-10T03:23:55;19.00;99.90
27819;DHT22;15192;44.854;10.046;2023-06-10T03:26:24;19.00;99.90
27819;DHT22;15192;44.854;10.046;2023-06-10T03:28:54;18.90;99.90
27819;DHT22;15192;44.854;10.046;2023-06-10T03:31:24;19.00;99.90
27819;DHT22;15192;44.854;10.046;2023-06-10T03:33:54;18.90;99.90
27819;DHT22;15192;44.854;10.046;2023-06-10T03:36:23;18.90;99.90
27819;DHT22;15192;44.854;10.046;2023-06-10T03:38:51;19.00;99.90
27819;DHT22;15192;44.854;10.046;2023-06-10T03:41:22;19.00;99.90
27819;DHT22;15192;44.854;10.046;2023-06-10T03:43:51;19.00;99.90
27819;DHT22;15192;44.854;10.046;2023-06-10T03:46:21;19.00;99.90
27819;DHT22;15192;44.854;10.046;2023-06-10T03:48:49;19.00;99.90
27819;DHT22;15192;44.854;10.046;2023-06-10T03:51:19;18.90;99.90
27819;DHT22;15192;44.854;10.046;2023-06-10T03:53:48;18.90;99.90
27819;DHT22;15192;44.854;10.046;2023-06-10T03:56:17;18.90;99.90
27819;DHT22;15192;44.854;10.046;2023-06-10T03:58:45;18.90;99.90
27819;DHT22;15192;44.854;10.046;2023-06-10T04:01:15;18.90;99.90
27819;DHT22;15192;44.854;10.046;2023-06-10T04:03:45;18.90;99.90
27819;DHT22;15192;44.854;10.046;2023-06-10T04:06:16;18.80;99.90
27819;DHT22;15192;44.854;10.046;2023-06-10T04:08:45;18.80;99.90
27819;DHT22;15192;44.854;10.046;2023-06-10T04:11:14;18.80;99.90
27819;DHT22;15192;44.854;10.046;2023-06-10T04:13:43;18.80;99.90
27819;DHT22;15192;44.854;10.046;2023-06-10T04:16:13;18.80;99.90
27819;DHT22;15192;44.854;10.046;2023-06-10T04:18:42;18.90;99.90
27819;DHT22;15192;44.854;10.046;2023-06-10T04:21:11;18.90;99.90
27819;DHT22;15192;44.854;10.046;2023-06-10T04:23:40;18.90;99.90
27819;DHT22;15192;44.854;10.046;2023-06-10T04:26:10;18.80;99.90
27819;DHT22;15192;44.854;10.046;2023-06-10T04:28:40;18.80;99.90
27819;DHT22;15192;44.854;10.046;2023-06-10T04:31:09;18.80;99.90
27819;DHT22;15192;44.854;10.046;2023-06-10T04:33:39;18.80;99.90
27819;DHT22;15192;44.854;10.046;2023-06-10T04:36:08;18.80;99.90
27819;DHT22;15192;44.854;10.046;2023-06-10T04:38:37;18.80;99.90
27819;DHT22;15192;44.854;10.046;2023-06-10T04:41:06;18.90;99.90
27819;DHT22;15192;44.854;10.046;2023-06-10T04:43:37;18.90;99.90
27819;DHT22;15192;44.854;10.046;2023-06-10T04:46:06;18.90;99.90
27819;DHT22;15192;44.854;10.046;2023-06-10T04:48:35;18.90;99.90
27819;DHT22;15192;44.854;10.046;2023-06-10T04:51:05;18.90;99.90
27819;DHT22;15192;44.854;10.046;2023-06-10T04:53:34;18.90;99.90
27819;DHT22;15192;44.854;10.046;2023-06-10T04:56:03;18.90;99.90
27819;DHT22;15192;44.854;10.046;2023-06-10T04:58:32;18.90;99.90
27819;DHT22;15192;44.854;10.046;2023-06-10T05:01:01;18.90;99.90
27819;DHT22;15192;44.854;10.046;2023-06-10T05:03:30;18.90;99.90
27819;DHT22;15192;44.854;10.046;2023-06-10T05:05:59;18.90;99.90
27819;DHT22;15192;44.854;10.046;2023-06-10T05:08:28;19.00;99.90
27819;DHT22;15192;44.854;10.046;2023-06-10T05:10:57;19.00;99.90
27819;DHT22;15192;44.854;10.046;2023-06-10T05:13:26;19.00;99.90
27819;DHT22;15192;44.854;10.046;2023-06-10T05:15:54;19.00;99.90
27819;DHT22;15192;44.854;10.046;2023-06-10T05:18:23;19.00;99.90
27819;DHT22;15192;44.854;10.046;2023-06-10T05:20:52;19.00;99.90
27819;DHT22;15192;44.854;10.046;2023-06-10T05:23:21;19.00;99.90
27819;DHT22;15192;44.854;10.046;2023-06-10T05:25:51;19.10;99.90
27819;DHT22;15192;44.854;10.046;2023-06-10T05:28:20;19.10;99.90
27819;DHT22;15192;44.854;10.046;2023-06-10T05:30:48;19.10;99.90
27819;DHT22;15192;44.854;10.046;2023-06-10T05:33:17;19.10;99.90
27819;DHT22;15192;44.854;10.046;2023-06-10T05:35:46;19.10;99.90
27819;DHT22;15192;44.854;10.046;2023-06-10T05:38:15;19.10;99.90
27819;DHT22;15192;44.854;10.046;2023-06-10T05:40:45;19.10;99.90
27819;DHT22;15192;44.854;10.046;2023-06-10T05:43:14;19.10;99.90
27819;DHT22;15192;44.854;10.046;2023-06-10T05:45:44;19.10;99.90
27819;DHT22;15192;44.854;10.046;2023-06-10T05:48:13;19.10;99.90
27819;DHT22;15192;44.854;10.046;2023-06-10T05:50:42;19.10;99.90
27819;DHT22;15192;44.854;10.046;2023-06-10T05:53:13;19.10;99.90
27819;DHT22;15192;44.854;10.046;2023-06-10T05:55:45;19.20;99.90
27819;DHT22;15192;44.854;10.046;2023-06-10T05:58:15;19.30;99.90
27819;DHT22;15192;44.854;10.046;2023-06-10T06:00:44;19.30;99.90
27819;DHT22;15192;44.854;10.046;2023-06-10T06:03:13;19.30;99.90
27819;DHT22;15192;44.854;10.046;2023-06-10T06:05:41;19.40;99.90
27819;DHT22;15192;44.854;10.046;2023-06-10T06:08:10;19.40;99.90
27819;DHT22;15192;44.854;10.046;2023-06-10T06:10:41;19.50;99.90
27819;DHT22;15192;44.854;10.046;2023-06-10T06:13:09;19.50;99.90
27819;DHT22;15192;44.854;10.046;2023-06-10T06:15:38;19.50;99.90
27819;DHT22;15192;44.854;10.046;2023-06-10T06:18:07;19.60;99.90
27819;DHT22;15192;44.854;10.046;2023-06-10T06:20:36;19.50;99.90
27819;DHT22;15192;44.854;10.046;2023-06-10T06:23:05;19.60;99.90
27819;DHT22;15192;44.854;10.046;2023-06-10T06:25:36;19.50;99.90
27819;DHT22;15192;44.854;10.046;2023-06-10T06:28:07;19.60;99.90
27819;DHT22;15192;44.854;10.046;2023-06-10T06:30:36;19.60;99.90
27819;DHT22;15192;44.854;10.046;2023-06-10T06:33:05;19.70;99.90
27819;DHT22;15192;44.854;10.046;2023-06-10T06:35:34;19.70;99.90
27819;DHT22;15192;44.854;10.046;2023-06-10T06:38:03;19.80;99.90
27819;DHT22;15192;44.854;10.046;2023-06-10T06:40:33;19.80;99.90
27819;DHT22;15192;44.854;10.046;2023-06-10T06:43:02;19.90;99.90
27819;DHT22;15192;44.854;10.046;2023-06-10T06:45:32;20.00;99.90
27819;DHT22;15192;44.854;10.046;2023-06-10T06:48:01;20.00;99.90
27819;DHT22;15192;44.854;10.046;2023-06-10T06:50:30;20.10;99.90
27819;DHT22;15192;44.854;10.046;2023-06-10T06:52:59;20.20;99.90
27819;DHT22;15192;44.854;10.046;2023-06-10T06:55:28;20.20;99.90
27819;DHT22;15192;44.854;10.046;2023-06-10T06:57:57;20.20;99.90
27819;DHT22;15192;44.854;10.046;2023-06-10T07:00:28;20.20;99.90
27819;DHT22;15192;44.854;10.046;2023-06-10T07:02:59;20.20;99.90
27819;DHT22;15192;44.854;10.046;2023-06-10T07:05:29;20.20;99.90
27819;DHT22;15192;44.854;10.046;2023-06-10T07:07:58;20.30;99.90
27819;DHT22;15192;44.854;10.046;2023-06-10T07:10:28;20.30;99.90
27819;DHT22;15192;44.854;10.046;2023-06-10T07:12:57;20.30;99.90
27819;DHT22;15192;44.854;10.046;2023-06-10T07:15:26;20.30;99.90
27819;DHT22;15192;44.854;10.046;2023-06-10T07:17:55;20.30;99.90
27819;DHT22;15192;44.854;10.046;2023-06-10T07:20:24;20.30;99.90
27819;DHT22;15192;44.854;10.046;2023-06-10T07:22:53;20.30;99.90
27819;DHT22;15192;44.854;10.046;2023-06-10T07:25:22;20.30;99.90
27819;DHT22;15192;44.854;10.046;2023-06-10T07:27:51;20.30;99.90
27819;DHT22;15192;44.854;10.046;2023-06-10T07:30:19;20.30;99.90
27819;DHT22;15192;44.854;10.046;2023-06-10T07:32:48;20.30;99.90
27819;DHT22;15192;44.854;10.046;2023-06-10T07:35:19;20.30;99.90
27819;DHT22;15192;44.854;10.046;2023-06-10T07:37:48;20.30;99.90
27819;DHT22;15192;44.854;10.046;2023-06-10T07:40:17;20.30;99.90
27819;DHT22;15192;44.854;10.046;2023-06-10T07:42:45;20.30;99.90
27819;DHT22;15192;44.854;10.046;2023-06-10T07:45:14;20.30;99.90
27819;DHT22;15192;44.854;10.046;2023-06-10T07:47:43;20.50;99.90
27819;DHT22;15192;44.854;10.046;2023-06-10T07:50:12;20.60;99.90
27819;DHT22;15192;44.854;10.046;2023-06-10T07:52:41;20.70;99.90
27819;DHT22;15192;44.854;10.046;2023-06-10T07:55:10;20.70;99.90
27819;DHT22;15192;44.854;10.046;2023-06-10T07:57:39;20.80;99.90
27819;DHT22;15192;44.854;10.046;2023-06-10T08:00:09;20.70;99.90
27819;DHT22;15192;44.854;10.046;2023-06-10T08:02:40;20.80;99.90
27819;DHT22;15192;44.854;10.046;2023-06-10T08:05:09;20.90;99.90
27819;DHT22;15192;44.854;10.046;2023-06-10T08:07:44;20.90;99.90
27819;DHT22;15192;44.854;10.046;2023-06-10T08:10:09;20.90;99.90
27819;DHT22;15192;44.854;10.046;2023-06-10T08:12:38;20.90;99.90
27819;DHT22;15192;44.854;10.046;2023-06-10T08:15:08;21.00;99.90
27819;DHT22;15192;44.854;10.046;2023-06-10T08:17:37;21.00;99.90
27819;DHT22;15192;44.854;10.046;2023-06-10T08:20:07;21.00;99.90
27819;DHT22;15192;44.854;10.046;2023-06-10T08:22:37;21.10;99.90
27819;DHT22;15192;44.854;10.046;2023-06-10T08:25:07;21.10;99.90
27819;DHT22;15192;44.854;10.046;2023-06-10T08:27:36;21.10;99.90
27819;DHT22;15192;44.854;10.046;2023-06-10T08:30:06;21.10;99.90
27819;DHT22;15192;44.854;10.046;2023-06-10T08:32:35;21.20;99.90
27819;DHT22;15192;44.854;10.046;2023-06-10T08:35:05;21.20;99.90
27819;DHT22;15192;44.854;10.046;2023-06-10T08:37:33;21.20;99.90
27819;DHT22;15192;44.854;10.046;2023-06-10T08:40:03;21.30;99.90
27819;DHT22;15192;44.854;10.046;2023-06-10T08:42:44;21.30;99.90
27819;DHT22;15192;44.854;10.046;2023-06-10T08:45:18;21.40;99.90
27819;DHT22;15192;44.854;10.046;2023-06-10T08:47:49;21.40;99.90
27819;DHT22;15192;44.854;10.046;2023-06-10T08:50:20;21.50;99.90
27819;DHT22;15192;44.854;10.046;2023-06-10T08:52:54;21.50;99.90
27819;DHT22;15192;44.854;10.046;2023-06-10T08:55:37;21.50;99.90
27819;DHT22;15192;44.854;10.046;2023-06-10T08:58:02;21.60;99.90
27819;DHT22;15192;44.854;10.046;2023-06-10T09:00:32;21.60;99.90
27819;DHT22;15192;44.854;10.046;2023-06-10T09:03:01;21.70;99.90
27819;DHT22;15192;44.854;10.046;2023-06-10T09:05:35;21.80;99.90
27819;DHT22;15192;44.854;10.046;2023-06-10T09:08:06;21.90;99.90
27819;DHT22;15192;44.854;10.046;2023-06-10T09:10:36;21.90;99.90
27819;DHT22;15192;44.854;10.046;2023-06-10T09:13:06;22.10;99.90
27819;DHT22;15192;44.854;10.046;2023-06-10T09:15:35;22.20;99.90
27819;DHT22;15192;44.854;10.046;2023-06-10T09:18:04;22.40;99.90
27819;DHT22;15192;44.854;10.046;2023-06-10T09:20:33;22.50;99.90
27819;DHT22;15192;44.854;10.046;2023-06-10T09:23:02;22.60;99.90
27819;DHT22;15192;44.854;10.046;2023-06-10T09:25:35;22.70;99.90
27819;DHT22;15192;44.854;10.046;2023-06-10T09:28:12;22.70;99.90
27819;DHT22;15192;44.854;10.046;2023-06-10T09:30:37;22.80;99.90
27819;DHT22;15192;44.854;10.046;2023-06-10T09:33:13;22.80;99.90
27819;DHT22;15192;44.854;10.046;2023-06-10T09:35:48;22.80;99.90
27819;DHT22;15192;44.854;10.046;2023-06-10T09:38:21;22.70;99.90
27819;DHT22;15192;44.854;10.046;2023-06-10T09:40:52;22.90;99.90
27819;DHT22;15192;44.854;10.046;2023-06-10T09:43:21;22.90;99.90
27819;DHT22;15192;44.854;10.046;2023-06-10T09:45:51;23.10;99.90
27819;DHT22;15192;44.854;10.046;2023-06-10T09:48:23;23.30;99.90
27819;DHT22;15192;44.854;10.046;2023-06-10T09:50:52;23.30;99.90
27819;DHT22;15192;44.854;10.046;2023-06-10T09:53:21;23.40;99.90
27819;DHT22;15192;44.854;10.046;2023-06-10T09:55:50;23.50;99.90
27819;DHT22;15192;44.854;10.046;2023-06-10T09:58:37;23.60;99.90
27819;DHT22;15192;44.854;10.046;2023-06-10T10:01:11;23.80;99.90
27819;DHT22;15192;44.854;10.046;2023-06-10T10:03:53;24.00;99.90
27819;DHT22;15192;44.854;10.046;2023-06-10T10:06:19;24.10;99.90
27819;DHT22;15192;44.854;10.046;2023-06-10T10:08:50;24.40;99.90
27819;DHT22;15192;44.854;10.046;2023-06-10T10:11:21;24.50;99.90
27819;DHT22;15192;44.854;10.046;2023-06-10T10:13:51;24.50;99.90
27819;DHT22;15192;44.854;10.046;2023-06-10T10:16:23;24.60;99.90
27819;DHT22;15192;44.854;10.046;2023-06-10T10:18:58;24.80;99.90
27819;DHT22;15192;44.854;10.046;2023-06-10T10:21:29;25.10;99.90
27819;DHT22;15192;44.854;10.046;2023-06-10T10:24:07;25.30;99.90
27819;DHT22;15192;44.854;10.046;2023-06-10T10:26:37;25.60;99.90
27819;DHT22;15192;44.854;10.046;2023-06-10T10:29:14;25.90;99.90
27819;DHT22;15192;44.854;10.046;2023-06-10T10:31:42;26.10;99.90
27819;DHT22;15192;44.854;10.046;2023-06-10T10:34:16;26.30;99.90
27819;DHT22;15192;44.854;10.046;2023-06-10T10:36:47;26.30;99.90
27819;DHT22;15192;44.854;10.046;2023-06-10T10:39:16;26.40;99.90
27819;DHT22;15192;44.854;10.046;2023-06-10T10:41:47;26.30;99.90
27819;DHT22;15192;44.854;10.046;2023-06-10T10:44:16;26.40;99.90
27819;DHT22;15192;44.854;10.046;2023-06-10T10:46:50;26.50;99.90
27819;DHT22;15192;44.854;10.046;2023-06-10T10:49:20;26.80;99.90
27819;DHT22;15192;44.854;10.046;2023-06-10T10:51:57;26.90;99.90
27819;DHT22;15192;44.854;10.046;2023-06-10T10:54:31;26.90;99.90
27819;DHT22;15192;44.854;10.046;2023-06-10T10:57:14;26.90;99.90
27819;DHT22;15192;44.854;10.046;2023-06-10T10:59:52;27.10;99.90
27819;DHT22;15192;44.854;10.046;2023-06-10T11:02:37;27.20;99.90
27819;DHT22;15192;44.854;10.046;2023-06-10T11:05:07;27.20;99.90
27819;DHT22;15192;44.854;10.046;2023-06-10T11:07:37;27.20;99.90
27819;DHT22;15192;44.854;10.046;2023-06-10T11:10:11;27.20;99.90
27819;DHT22;15192;44.854;10.046;2023-06-10T11:15:23;27.30;99.90
27819;DHT22;15192;44.854;10.046;2023-06-10T11:18:14;27.30;99.90
27819;DHT22;15192;44.854;10.046;2023-06-10T11:26:19;27.00;99.90
27819;DHT22;15192;44.854;10.046;2023-06-10T11:31:31;26.80;99.90
27819;DHT22;15192;44.854;10.046;2023-06-10T11:34:02;26.60;99.90
27819;DHT22;15192;44.854;10.046;2023-06-10T11:36:35;26.40;99.90
27819;DHT22;15192;44.854;10.046;2023-06-10T11:39:05;26.10;99.90
27819;DHT22;15192;44.854;10.046;2023-06-10T11:41:35;25.80;99.90
27819;DHT22;15192;44.854;10.046;2023-06-10T11:44:10;25.70;99.90
27819;DHT22;15192;44.854;10.046;2023-06-10T11:46:40;25.70;99.90
27819;DHT22;15192;44.854;10.046;2023-06-10T11:49:12;25.80;99.90
27819;DHT22;15192;44.854;10.046;2023-06-10T11:51:41;25.90;99.90
27819;DHT22;15192;44.854;10.046;2023-06-10T11:54:12;25.90;99.90
27819;DHT22;15192;44.854;10.046;2023-06-10T11:56:41;25.90;99.90
27819;DHT22;15192;44.854;10.046;2023-06-10T11:59:10;25.80;99.90
27819;DHT22;15192;44.854;10.046;2023-06-10T12:01:44;25.90;99.90
27819;DHT22;15192;44.854;10.046;2023-06-10T12:04:15;25.90;99.90
27819;DHT22;15192;44.854;10.046;2023-06-10T12:06:52;26.10;99.90
27819;DHT22;15192;44.854;10.046;2023-06-10T12:09:24;26.10;99.90
27819;DHT22;15192;44.854;10.046;2023-06-10T12:12:00;26.10;99.90
27819;DHT22;15192;44.854;10.046;2023-06-10T12:14:55;26.10;99.90
27819;DHT22;15192;44.854;10.046;2023-06-10T12:20:08;26.10;99.90
27819;DHT22;15192;44.854;10.046;2023-06-10T12:22:43;26.30;99.90
27819;DHT22;15192;44.854;10.046;2023-06-10T12:25:12;26.50;99.90
27819;DHT22;15192;44.854;10.046;2023-06-10T12:27:52;26.60;99.90
27819;DHT22;15192;44.854;10.046;2023-06-10T12:30:23;26.70;99.90
27819;DHT22;15192;44.854;10.046;2023-06-10T12:32:53;26.60;99.90
27819;DHT22;15192;44.854;10.046;2023-06-10T12:35:27;26.50;99.90
27819;DHT22;15192;44.854;10.046;2023-06-10T12:38:01;26.40;99.90
27819;DHT22;15192;44.854;10.046;2023-06-10T12:40:34;26.30;99.90
27819;DHT22;15192;44.854;10.046;2023-06-10T12:43:04;26.20;99.90
27819;DHT22;15192;44.854;10.046;2023-06-10T12:45:34;26.30;99.90
27819;DHT22;15192;44.854;10.046;2023-06-10T12:48:23;26.30;99.90
27819;DHT22;15192;44.854;10.046;2023-06-10T12:50:57;26.20;99.90
27819;DHT22;15192;44.854;10.046;2023-06-10T12:53:27;26.10;99.90
27819;DHT22;15192;44.854;10.046;2023-06-10T12:55:56;26.30;99.90
27819;DHT22;15192;44.854;10.046;2023-06-10T12:58:27;26.30;99.90
27819;DHT22;15192;44.854;10.046;2023-06-10T13:00:56;26.30;99.90
27819;DHT22;15192;44.854;10.046;2023-06-10T13:03:24;26.40;99.90
27819;DHT22;15192;44.854;10.046;2023-06-10T13:05:54;26.50;99.90
27819;DHT22;15192;44.854;10.046;2023-06-10T13:08:23;26.60;99.90
27819;DHT22;15192;44.854;10.046;2023-06-10T13:10:52;26.80;99.90
27819;DHT22;15192;44.854;10.046;2023-06-10T13:13:21;27.00;99.90
27819;DHT22;15192;44.854;10.046;2023-06-10T13:15:50;27.20;99.90
27819;DHT22;15192;44.854;10.046;2023-06-10T13:18:19;27.30;99.90
27819;DHT22;15192;44.854;10.046;2023-06-10T13:20:48;27.40;99.90
27819;DHT22;15192;44.854;10.046;2023-06-10T13:23:17;27.30;99.90
27819;DHT22;15192;44.854;10.046;2023-06-10T13:25:46;27.20;99.90
27819;DHT22;15192;44.854;10.046;2023-06-10T13:28:15;27.30;99.90
27819;DHT22;15192;44.854;10.046;2023-06-10T13:30:44;27.50;99.90
27819;DHT22;15192;44.854;10.046;2023-06-10T13:33:13;27.70;99.90
27819;DHT22;15192;44.854;10.046;2023-06-10T13:35:42;27.70;99.90
27819;DHT22;15192;44.854;10.046;2023-06-10T13:38:11;27.50;99.90
27819;DHT22;15192;44.854;10.046;2023-06-10T13:40:40;27.40;99.90
27819;DHT22;15192;44.854;10.046;2023-06-10T13:43:09;27.40;99.90
27819;DHT22;15192;44.854;10.046;2023-06-10T13:45:38;27.40;99.90
27819;DHT22;15192;44.854;10.046;2023-06-10T13:48:06;27.50;99.90
27819;DHT22;15192;44.854;10.046;2023-06-10T13:50:37;27.50;99.90
27819;DHT22;15192;44.854;10.046;2023-06-10T13:53:06;27.30;99.90
27819;DHT22;15192;44.854;10.046;2023-06-10T13:55:34;27.10;99.90
27819;DHT22;15192;44.854;10.046;2023-06-10T13:58:03;27.00;99.90
27819;DHT22;15192;44.854;10.046;2023-06-10T14:00:33;26.90;99.90
27819;DHT22;15192;44.854;10.046;2023-06-10T14:03:02;26.80;99.90
27819;DHT22;15192;44.854;10.046;2023-06-10T14:05:31;26.60;99.90
27819;DHT22;15192;44.854;10.046;2023-06-10T14:08:01;26.50;99.90
27819;DHT22;15192;44.854;10.046;2023-06-10T14:10:29;26.30;99.90
27819;DHT22;15192;44.854;10.046;2023-06-10T14:12:58;26.20;99.90
27819;DHT22;15192;44.854;10.046;2023-06-10T14:15:28;26.10;99.90
27819;DHT22;15192;44.854;10.046;2023-06-10T14:17:57;26.10;99.90
27819;DHT22;15192;44.854;10.046;2023-06-10T14:20:26;26.20;99.90
27819;DHT22;15192;44.854;10.046;2023-06-10T14:22:57;26.40;99.90
27819;DHT22;15192;44.854;10.046;2023-06-10T14:25:26;26.50;99.90
27819;DHT22;15192;44.854;10.046;2023-06-10T14:27:55;26.90;99.90
27819;DHT22;15192;44.854;10.046;2023-06-10T14:30:25;27.10;99.90
27819;DHT22;15192;44.854;10.046;2023-06-10T14:32:54;27.40;99.90
27819;DHT22;15192;44.854;10.046;2023-06-10T14:35:23;27.60;99.90
27819;DHT22;15192;44.854;10.046;2023-06-10T14:37:52;27.80;99.90
27819;DHT22;15192;44.854;10.046;2023-06-10T14:40:20;28.00;99.90
27819;DHT22;15192;44.854;10.046;2023-06-10T14:42:50;28.10;99.90
27819;DHT22;15192;44.854;10.046;2023-06-10T14:45:19;28.20;99.90
27819;DHT22;15192;44.854;10.046;2023-06-10T14:47:48;28.00;99.90
27819;DHT22;15192;44.854;10.046;2023-06-10T14:50:17;27.60;99.90
27819;DHT22;15192;44.854;10.046;2023-06-10T14:52:46;27.20;99.90
27819;DHT22;15192;44.854;10.046;2023-06-10T14:55:15;27.00;99.90
27819;DHT22;15192;44.854;10.046;2023-06-10T14:57:44;26.90;99.90
27819;DHT22;15192;44.854;10.046;2023-06-10T15:00:13;26.80;99.90
27819;DHT22;15192;44.854;10.046;2023-06-10T15:02:43;26.80;99.90
27819;DHT22;15192;44.854;10.046;2023-06-10T15:05:12;26.90;99.90
27819;DHT22;15192;44.854;10.046;2023-06-10T15:07:43;26.80;99.90
27819;DHT22;15192;44.854;10.046;2023-06-10T15:10:12;26.80;99.90
27819;DHT22;15192;44.854;10.046;2023-06-10T15:12:41;26.80;99.90
27819;DHT22;15192;44.854;10.046;2023-06-10T15:15:10;26.70;99.90
27819;DHT22;15192;44.854;10.046;2023-06-10T15:17:39;26.50;99.90
27819;DHT22;15192;44.854;10.046;2023-06-10T15:20:08;26.40;99.90
27819;DHT22;15192;44.854;10.046;2023-06-10T15:22:37;26.30;99.90
27819;DHT22;15192;44.854;10.046;2023-06-10T15:25:07;26.20;99.90
27819;DHT22;15192;44.854;10.046;2023-06-10T15:27:35;26.30;99.90
27819;DHT22;15192;44.854;10.046;2023-06-10T15:30:05;26.20;99.90
27819;DHT22;15192;44.854;10.046;2023-06-10T15:32:34;26.20;99.90
27819;DHT22;15192;44.854;10.046;2023-06-10T15:35:04;26.20;99.90
27819;DHT22;15192;44.854;10.046;2023-06-10T15:37:33;26.30;99.90
27819;DHT22;15192;44.854;10.046;2023-06-10T15:40:02;26.40;99.90
27819;DHT22;15192;44.854;10.046;2023-06-10T15:42:31;26.50;99.90
27819;DHT22;15192;44.854;10.046;2023-06-10T15:44:59;26.60;99.90
27819;DHT22;15192;44.854;10.046;2023-06-10T15:47:28;26.60;99.90
27819;DHT22;15192;44.854;10.046;2023-06-10T15:49:57;26.60;99.90